createdAt,value
2019-03-03T13:34:40.924Z,97688.98
2019-03-03T13:59:34.157Z,97779.99
2019-03-03T14:02:07.030Z,97781.33
2019-03-03T14:04:41.162Z,97776.63
2019-03-03T14:07:13.836Z,97779.97
2019-03-03T14:09:46.526Z,97766.53
2019-03-03T14:12:19.102Z,97774.87
2019-03-03T14:14:52.782Z,97773.91
2019-03-03T14:17:25.365Z,97769.08
2019-03-03T14:20:00.636Z,97765.00
2019-03-03T14:22:34.363Z,97764.21
2019-03-03T14:25:08.980Z,97757.33
2019-03-03T14:27:41.830Z,97751.34
2019-03-03T14:30:18.484Z,97750.69
2019-03-03T14:32:51.130Z,97749.16
2019-03-03T14:35:23.639Z,97743.27
2019-03-03T14:37:56.296Z,97744.91
2019-03-03T14:41:31.371Z,97741.70
2019-03-03T14:43:40.132Z,97744.92
2019-03-03T14:45:47.851Z,97737.01
2019-03-03T14:47:55.532Z,97733.72
2019-03-03T14:50:03.075Z,97725.14
2019-03-03T14:52:10.658Z,97721.20
2019-03-03T14:54:18.331Z,97732.16
2019-03-03T14:56:25.960Z,97732.27
2019-03-03T14:58:33.612Z,97723.96
2019-03-03T15:00:42.153Z,97728.34
2019-03-03T15:02:49.635Z,97728.44
2019-03-03T15:04:57.211Z,97722.34
2019-03-03T15:07:04.825Z,97718.42
2019-03-03T15:09:14.012Z,97728.64
2019-03-03T15:11:22.034Z,97715.52
2019-03-03T15:13:29.648Z,97703.73
2019-03-03T15:15:40.985Z,97706.58
2019-03-03T15:17:48.533Z,97696.42
2019-03-03T15:19:56.353Z,97691.71
2019-03-03T15:22:04.195Z,97683.70
2019-03-03T15:24:12.914Z,97695.36
2019-03-03T15:26:20.519Z,97702.39
2019-03-03T15:28:28.317Z,97693.55
2019-03-03T15:30:36.066Z,97700.48
2019-03-03T15:32:43.781Z,97709.16
2019-03-03T15:34:51.427Z,97706.80
2019-03-03T15:36:59.029Z,97706.42
2019-03-03T15:39:08.945Z,97710.00
2019-03-03T15:41:18.198Z,97716.83
2019-03-03T15:43:25.682Z,97704.98
2019-03-03T15:45:33.461Z,97699.50
2019-03-03T15:47:42.332Z,97696.05
2019-03-03T15:49:49.812Z,97694.04
2019-03-03T15:51:57.384Z,97678.53
2019-03-03T15:54:05.200Z,97688.39
2019-03-03T15:56:12.921Z,97685.02
2019-03-03T15:58:20.536Z,97685.91
2019-03-03T16:00:39.967Z,97684.73
2019-03-03T16:02:48.364Z,97681.28
2019-03-03T16:04:55.878Z,97683.55
2019-03-03T16:07:03.454Z,97684.92
2019-03-03T16:09:12.822Z,97684.47
2019-03-03T16:11:20.472Z,97683.29
2019-03-03T16:13:28.010Z,97688.40
2019-03-03T16:15:35.591Z,97692.23
2019-03-03T16:17:43.444Z,97687.56
2019-03-03T16:19:51.026Z,97690.13
2019-03-03T16:21:58.676Z,97691.05
2019-03-03T16:24:08.555Z,97690.66
2019-03-03T16:26:15.673Z,97688.94
2019-03-03T16:28:23.231Z,97688.56
2019-03-03T16:30:30.981Z,97683.10
2019-03-03T16:32:38.565Z,97678.92
2019-03-03T16:34:46.218Z,97679.27
2019-03-03T16:36:53.822Z,97684.47
2019-03-03T16:39:01.477Z,97681.09
2019-03-03T16:41:10.666Z,97681.57
2019-03-03T16:43:18.346Z,97676.18
2019-03-03T16:45:25.824Z,97684.37
2019-03-03T16:47:33.310Z,97684.77
2019-03-03T16:49:40.974Z,97685.75
2019-03-03T16:51:48.673Z,97684.03
2019-03-03T16:53:56.254Z,97686.10
2019-03-03T16:56:03.937Z,97678.45
2019-03-03T16:58:11.688Z,97677.64
2019-03-03T17:00:26.785Z,97677.64
2019-03-03T17:02:34.422Z,97673.81
2019-03-03T17:04:42.185Z,97669.51
2019-03-03T17:06:49.772Z,97673.23
2019-03-03T17:08:57.389Z,97674.52
2019-03-03T17:11:04.853Z,97677.55
2019-03-03T17:13:12.437Z,97673.34
2019-03-03T17:15:28.233Z,97676.47
2019-03-03T17:17:35.886Z,97679.47
2019-03-03T17:19:44.759Z,97673.17
2019-03-03T17:21:52.366Z,97673.27
2019-03-03T17:23:59.948Z,97671.27
2019-03-03T17:26:09.447Z,97674.07
2019-03-03T17:28:16.915Z,97670.88
2019-03-03T17:30:29.631Z,97666.16
2019-03-03T17:32:37.155Z,97670.88
2019-03-03T17:34:44.667Z,97675.25
2019-03-03T17:36:52.322Z,97674.07
2019-03-03T17:38:59.803Z,97666.98
2019-03-03T17:41:07.473Z,97670.81
2019-03-03T17:43:15.123Z,97670.81
2019-03-03T17:45:24.106Z,97664.44
2019-03-03T17:47:31.614Z,97660.95
2019-03-03T17:49:39.200Z,97664.34
2019-03-03T17:51:46.682Z,97668.97
2019-03-03T17:53:55.000Z,97671.42
2019-03-03T17:56:03.293Z,97672.34
2019-03-03T17:58:11.659Z,97666.89
2019-03-03T18:00:46.310Z,97660.67
2019-03-03T18:02:55.617Z,97660.86
2019-03-03T18:05:05.708Z,97655.28
2019-03-03T18:07:13.757Z,97656.84
2019-03-03T18:09:22.018Z,97649.53
2019-03-03T18:11:30.067Z,97645.89
2019-03-03T18:13:38.405Z,97643.24
2019-03-03T18:15:47.014Z,97640.14
2019-03-03T18:17:55.589Z,97640.33
2019-03-03T18:20:03.670Z,97645.15
2019-03-03T18:22:11.233Z,97645.69
2019-03-03T18:24:18.805Z,97645.87
2019-03-03T18:26:26.491Z,97644.59
2019-03-03T18:28:34.060Z,97645.05
2019-03-03T18:30:41.702Z,97642.97
2019-03-03T18:32:49.642Z,97647.33
2019-03-03T18:34:57.211Z,97645.67
2019-03-03T18:37:05.058Z,97641.94
2019-03-03T18:39:12.736Z,97642.03
2019-03-03T18:41:20.307Z,97634.03
2019-03-03T18:43:28.011Z,97633.20
2019-03-03T18:45:35.790Z,97631.09
2019-03-03T18:47:43.737Z,97629.12
2019-03-03T18:49:51.267Z,97620.73
2019-03-03T18:51:58.871Z,97622.98
2019-03-03T18:54:06.594Z,97625.55
2019-03-03T18:56:14.170Z,97624.45
2019-03-03T18:58:21.674Z,97618.08
2019-03-03T19:00:32.188Z,97626.17
2019-03-03T19:02:39.976Z,97624.16
2019-03-03T19:04:47.661Z,97618.80
2019-03-03T19:06:56.167Z,97621.34
2019-03-03T19:09:03.792Z,97615.95
2019-03-03T19:11:12.998Z,97613.89
2019-03-03T19:13:20.684Z,97619.05
2019-03-03T19:15:28.333Z,97615.70
2019-03-03T19:17:36.177Z,97616.50
2019-03-03T19:19:44.834Z,97611.40
2019-03-03T19:21:52.527Z,97610.95
2019-03-03T19:24:00.147Z,97611.05
2019-03-03T19:26:07.623Z,97610.13
2019-03-03T19:28:16.526Z,97605.85
2019-03-03T19:30:28.985Z,97603.84
2019-03-03T19:32:36.547Z,97604.67
2019-03-03T19:34:44.105Z,97599.48
2019-03-03T19:36:51.725Z,97594.47
2019-03-03T19:38:59.311Z,97590.65
2019-03-03T19:41:06.853Z,97594.03
2019-03-03T19:43:14.540Z,97585.45
2019-03-03T19:45:37.946Z,97591.83
2019-03-03T19:47:45.829Z,97591.39
2019-03-03T19:49:53.571Z,97588.45
2019-03-03T19:52:01.471Z,97585.91
2019-03-03T19:54:10.133Z,97587.17
2019-03-03T19:56:17.761Z,97584.09
2019-03-03T19:58:25.467Z,97579.08
2019-03-03T20:00:44.065Z,97581.92
2019-03-03T20:02:51.749Z,97573.89
2019-03-03T20:04:59.363Z,97578.64
2019-03-03T20:07:07.446Z,97575.70
2019-03-03T20:09:15.705Z,97567.61
2019-03-03T20:11:23.247Z,97570.55
2019-03-03T20:13:30.993Z,97568.80
2019-03-03T20:15:39.136Z,97568.25
2019-03-03T20:17:47.847Z,97570.61
2019-03-03T20:19:55.390Z,97569.34
2019-03-03T20:22:02.994Z,97568.70
2019-03-03T20:24:10.640Z,97560.96
2019-03-03T20:26:20.879Z,97562.52
2019-03-03T20:28:28.713Z,97560.33
2019-03-03T20:30:37.995Z,97560.27
2019-03-03T20:32:46.039Z,97561.44
2019-03-03T20:34:53.757Z,97558.31
2019-03-03T20:37:02.775Z,97559.88
2019-03-03T20:39:10.588Z,97561.06
2019-03-03T20:41:18.371Z,97558.41
2019-03-03T20:43:25.950Z,97558.23
2019-03-03T20:45:34.739Z,97559.88
2019-03-03T20:47:42.292Z,97555.96
2019-03-03T20:49:49.903Z,97549.59
2019-03-03T20:51:57.469Z,97551.05
2019-03-03T20:54:05.178Z,97550.41
2019-03-03T20:56:12.819Z,97554.94
2019-03-03T20:58:20.466Z,97557.04
2019-03-03T21:00:33.056Z,97553.85
2019-03-03T21:02:40.629Z,97556.50
2019-03-03T21:04:48.202Z,97551.59
2019-03-03T21:06:55.808Z,97555.22
2019-03-03T21:09:04.458Z,97556.75
2019-03-03T21:11:13.625Z,97559.14
2019-03-03T21:13:21.304Z,97552.13
2019-03-03T21:15:29.030Z,97542.16
2019-03-03T21:17:36.685Z,97543.23
2019-03-03T21:19:44.374Z,97536.51
2019-03-03T21:21:51.914Z,97526.96
2019-03-03T21:24:00.575Z,97539.82
2019-03-03T21:26:08.089Z,97525.97
2019-03-03T21:28:15.676Z,97528.59
2019-03-03T21:30:25.638Z,97526.22
2019-03-03T21:32:33.413Z,97525.22
2019-03-03T21:34:40.994Z,97530.33
2019-03-03T21:36:48.749Z,97523.95
2019-03-03T21:38:56.397Z,97524.84
2019-03-03T21:41:04.015Z,97525.33
2019-03-03T21:43:12.672Z,97521.39
2019-03-03T21:45:30.651Z,97520.22
2019-03-03T21:47:38.230Z,97515.91
2019-03-03T21:49:45.713Z,97517.66
2019-03-03T21:51:54.294Z,97514.63
2019-03-03T21:54:01.989Z,97519.54
2019-03-03T21:56:09.675Z,97505.88
2019-03-03T21:58:17.642Z,97505.33
2019-03-03T22:00:43.467Z,97505.67
2019-03-03T22:02:51.051Z,97501.02
2019-03-03T22:04:58.657Z,97504.30
2019-03-03T22:07:06.308Z,97497.57
2019-03-03T22:09:15.291Z,97497.19
2019-03-03T22:11:24.497Z,97498.95
2019-03-03T22:13:32.085Z,97495.22
2019-03-03T22:15:39.632Z,97495.67
2019-03-03T22:17:47.146Z,97486.83
2019-03-03T22:19:54.638Z,97484.83
2019-03-03T22:22:02.211Z,97490.93
2019-03-03T22:24:09.824Z,97486.85
2019-03-03T22:26:17.403Z,97479.30
2019-03-03T22:28:24.884Z,97481.47
2019-03-03T22:30:32.463Z,97478.92
2019-03-03T22:32:40.318Z,97479.84
2019-03-03T22:34:47.900Z,97476.09
2019-03-03T22:36:55.501Z,97470.16
2019-03-03T22:39:03.081Z,97468.88
2019-03-03T22:41:12.135Z,97457.05
2019-03-03T22:43:21.403Z,97452.29
2019-03-03T22:45:29.071Z,97459.22
2019-03-03T22:47:36.643Z,97458.48
2019-03-03T22:49:44.394Z,97457.41
2019-03-03T22:51:51.868Z,97454.61
2019-03-03T22:54:00.733Z,97452.61
2019-03-03T22:56:08.336Z,97447.61
2019-03-03T22:58:15.997Z,97448.98
2019-03-03T23:00:44.324Z,97448.50
2019-03-03T23:02:52.831Z,97452.53
2019-03-03T23:05:10.845Z,97445.42
2019-03-03T23:07:28.264Z,97446.89
2019-03-03T23:10:22.776Z,97441.06
2019-03-03T23:12:50.395Z,97447.89
2019-03-03T23:15:27.922Z,97452.02
2019-03-03T23:18:01.201Z,97445.10
2019-03-03T23:20:31.564Z,97445.30
2019-03-03T23:22:58.734Z,97431.09
2019-03-03T23:25:28.530Z,97432.18
2019-03-03T23:27:36.024Z,97433.65
2019-03-03T23:29:43.598Z,97432.92
2019-03-03T23:31:51.177Z,97433.02
2019-03-03T23:33:58.777Z,97430.84
2019-03-03T23:36:06.488Z,97431.39
2019-03-03T23:38:14.134Z,97432.13
2019-03-03T23:40:21.748Z,97428.75
2019-03-03T23:42:29.316Z,97427.92
2019-03-03T23:44:36.789Z,97424.54
2019-03-03T23:46:44.529Z,97421.98
2019-03-03T23:48:52.169Z,97424.64
2019-03-03T23:50:59.811Z,97422.19
2019-03-03T23:53:07.309Z,97426.84
2019-03-03T23:55:15.345Z,97426.02
2019-03-03T23:57:23.543Z,97422.73
2019-03-03T23:59:31.296Z,97421.55
